createdAt,value
2019-02-14T00:00:29.042Z,25.37
2019-02-14T00:02:58.709Z,19.77
2019-02-14T00:05:28.508Z,20.80
2019-02-14T00:07:58.399Z,18.00
2019-02-14T00:10:28.298Z,20.73
2019-02-14T00:12:57.962Z,18.97
2019-02-14T00:15:27.643Z,18.37
2019-02-14T00:17:59.535Z,19.97
2019-02-14T00:20:29.635Z,20.87
2019-02-14T00:22:59.696Z,18.23
2019-02-14T00:25:29.320Z,26.03
2019-02-14T00:27:59.152Z,21.80
2019-02-14T00:30:29.243Z,20.10
2019-02-14T00:33:00.416Z,18.83
2019-02-14T00:35:31.398Z,18.97
2019-02-14T00:38:01.430Z,23.10
2019-02-14T00:40:32.249Z,21.43
2019-02-14T00:43:01.957Z,19.70
2019-02-14T00:45:32.041Z,20.90
2019-02-14T00:48:01.759Z,21.80
2019-02-14T00:50:31.513Z,19.13
2019-02-14T00:53:01.303Z,19.23
2019-02-14T00:55:31.879Z,20.07
2019-02-14T00:58:02.177Z,21.73
2019-02-14T01:00:31.939Z,25.13
2019-02-14T01:03:02.428Z,20.93
2019-02-14T01:08:16.931Z,19.27
2019-02-14T01:10:48.286Z,15.43
2019-02-14T01:13:18.331Z,19.13
2019-02-14T01:15:48.407Z,21.57
2019-02-14T01:18:18.429Z,21.83
2019-02-14T01:20:48.436Z,24.47
2019-02-14T01:23:18.998Z,21.07
2019-02-14T01:25:48.735Z,18.60
2019-02-14T01:28:18.757Z,21.90
2019-02-14T01:30:48.530Z,21.93
2019-02-14T01:33:18.377Z,19.00
2019-02-14T01:35:48.084Z,22.80
2019-02-14T01:38:17.699Z,23.80
2019-02-14T01:40:47.623Z,34.17
2019-02-14T01:43:17.275Z,23.27
2019-02-14T01:45:47.126Z,20.63
2019-02-14T01:48:16.708Z,20.70
2019-02-14T01:50:47.022Z,18.97
2019-02-14T01:53:16.792Z,18.53
2019-02-14T01:55:46.765Z,15.33
2019-02-14T01:58:16.853Z,20.27
2019-02-14T02:00:47.141Z,24.37
2019-02-14T02:03:16.807Z,17.70
2019-02-14T02:05:50.794Z,16.90
2019-02-14T02:08:18.059Z,16.47
2019-02-14T02:10:48.019Z,18.57
2019-02-14T02:13:18.633Z,16.27
2019-02-14T02:15:48.418Z,18.60
2019-02-14T02:18:18.893Z,25.70
2019-02-14T02:20:48.629Z,18.70
2019-02-14T02:23:18.807Z,16.73
2019-02-14T02:25:50.004Z,16.77
2019-02-14T02:28:20.613Z,17.77
2019-02-14T02:30:50.990Z,12.77
2019-02-14T02:33:22.745Z,14.60
2019-02-14T02:36:00.239Z,18.33
2019-02-14T02:38:23.852Z,18.40
2019-02-14T02:40:54.363Z,13.90
2019-02-14T02:43:24.265Z,21.70
2019-02-14T02:45:54.223Z,16.30
2019-02-14T02:48:23.860Z,16.67
2019-02-14T02:50:53.525Z,22.00
2019-02-14T02:53:23.182Z,19.23
2019-02-14T02:55:52.875Z,19.50
2019-02-14T02:58:22.720Z,21.17
2019-02-14T03:00:52.500Z,18.47
2019-02-14T03:03:22.525Z,17.90
2019-02-14T03:05:52.599Z,20.43
2019-02-14T03:08:22.671Z,20.97
2019-02-14T03:10:54.133Z,19.33
2019-02-14T03:13:24.264Z,18.93
2019-02-14T03:15:54.204Z,18.57
2019-02-14T03:18:24.070Z,26.33
2019-02-14T03:20:53.762Z,20.47
2019-02-14T03:23:23.780Z,17.23
2019-02-14T03:25:53.858Z,21.43
2019-02-14T03:28:23.732Z,18.03
2019-02-14T03:30:53.894Z,20.47
2019-02-14T03:33:24.229Z,19.17
2019-02-14T03:35:54.168Z,18.00
2019-02-14T03:38:23.830Z,16.93
2019-02-14T03:40:53.794Z,21.03
2019-02-14T03:43:23.359Z,20.57
2019-02-14T03:45:53.216Z,19.33
2019-02-14T03:48:24.928Z,16.17
2019-02-14T03:50:55.154Z,20.43
2019-02-14T03:53:24.944Z,21.00
2019-02-14T03:55:54.680Z,17.97
2019-02-14T03:58:24.395Z,19.67
2019-02-14T04:00:54.758Z,23.87
2019-02-14T04:03:24.601Z,18.50
2019-02-14T04:05:54.403Z,19.83
2019-02-14T04:08:24.204Z,19.37
2019-02-14T04:10:54.251Z,23.77
2019-02-14T04:13:24.177Z,20.57
2019-02-14T04:15:54.777Z,23.23
2019-02-14T04:18:24.418Z,20.70
2019-02-14T04:20:54.138Z,18.20
2019-02-14T04:23:23.954Z,19.70
2019-02-14T04:25:53.696Z,18.57
2019-02-14T04:28:23.627Z,23.17
2019-02-14T04:30:53.430Z,22.37
2019-02-14T04:33:23.114Z,20.63
2019-02-14T04:35:53.138Z,26.10
2019-02-14T04:38:23.167Z,24.30
2019-02-14T04:40:53.568Z,23.40
2019-02-14T04:43:23.818Z,29.77
2019-02-14T04:45:53.777Z,22.30
2019-02-14T04:48:23.849Z,27.07
2019-02-14T04:50:53.738Z,23.53
2019-02-14T04:53:23.372Z,22.93
2019-02-14T04:55:53.281Z,24.17
2019-02-14T04:58:23.717Z,23.70
2019-02-14T05:00:54.013Z,23.13
2019-02-14T05:03:23.842Z,26.20
2019-02-14T05:05:53.451Z,21.07
2019-02-14T05:08:23.369Z,25.40
2019-02-14T05:10:53.207Z,25.73
2019-02-14T05:13:23.112Z,26.90
2019-02-14T05:15:53.284Z,22.33
2019-02-14T05:18:23.110Z,25.87
2019-02-14T05:20:52.895Z,23.47
2019-02-14T05:23:23.225Z,35.43
2019-02-14T05:25:53.339Z,24.87
2019-02-14T05:28:23.143Z,21.53
2019-02-14T05:30:52.954Z,21.80
2019-02-14T05:33:22.629Z,25.00
2019-02-14T05:35:52.291Z,25.87
2019-02-14T05:38:21.987Z,25.43
2019-02-14T05:40:51.951Z,27.57
2019-02-14T05:43:22.275Z,30.80
2019-02-14T05:45:53.497Z,28.70
2019-02-14T05:48:23.557Z,24.70
2019-02-14T05:50:53.618Z,26.03
2019-02-14T05:53:23.670Z,26.50
2019-02-14T05:55:54.054Z,26.80
2019-02-14T05:58:24.023Z,25.20
2019-02-14T06:00:54.162Z,24.77
2019-02-14T06:03:24.308Z,20.30
2019-02-14T06:05:54.544Z,22.37
2019-02-14T06:08:24.500Z,23.07
2019-02-14T06:10:54.167Z,27.80
2019-02-14T06:13:23.807Z,23.40
2019-02-14T06:15:53.592Z,22.10
2019-02-14T06:18:23.499Z,23.63
2019-02-14T06:20:54.184Z,23.97
2019-02-14T06:23:24.257Z,21.40
2019-02-14T06:25:53.891Z,22.53
2019-02-14T06:28:23.865Z,24.40
2019-02-14T06:30:53.552Z,20.20
2019-02-14T06:33:23.269Z,22.03
2019-02-14T06:35:53.410Z,23.33
2019-02-14T06:38:23.201Z,25.27
2019-02-14T06:40:52.937Z,25.30
2019-02-14T06:43:22.697Z,28.60
2019-02-14T06:45:53.000Z,26.70
2019-02-14T06:48:22.768Z,30.97
2019-02-14T06:50:52.512Z,25.73
2019-02-14T06:53:22.364Z,31.13
2019-02-14T06:55:52.411Z,22.27
2019-02-14T06:58:22.618Z,24.17
2019-02-14T07:00:52.372Z,25.57
2019-02-14T07:03:22.359Z,26.70
2019-02-14T07:05:52.630Z,31.03
2019-02-14T07:08:22.658Z,29.37
2019-02-14T07:10:52.526Z,21.40
2019-02-14T07:13:22.962Z,24.80
2019-02-14T07:15:53.335Z,26.57
2019-02-14T07:18:23.023Z,25.77
2019-02-14T07:20:53.414Z,26.67
2019-02-14T07:23:23.157Z,26.43
2019-02-14T07:25:53.447Z,25.87
2019-02-14T07:28:23.387Z,26.67
2019-02-14T07:30:53.453Z,21.80
2019-02-14T07:33:23.343Z,28.00
2019-02-14T07:35:53.767Z,29.93
2019-02-14T07:38:23.443Z,23.37
2019-02-14T07:40:54.501Z,27.60
2019-02-14T07:43:24.520Z,30.63
2019-02-14T07:45:55.557Z,27.47
2019-02-14T07:48:25.490Z,27.37
2019-02-14T07:50:55.198Z,27.33
2019-02-14T07:53:24.849Z,27.30
2019-02-14T07:55:54.450Z,28.97
2019-02-14T07:58:24.739Z,28.17
2019-02-14T08:00:54.785Z,26.33
2019-02-14T08:03:25.036Z,30.60
2019-02-14T08:05:55.229Z,27.83
2019-02-14T08:08:25.640Z,27.07
2019-02-14T08:10:55.764Z,26.13
2019-02-14T08:13:25.808Z,27.73
2019-02-14T08:15:56.001Z,26.23
2019-02-14T08:18:25.966Z,27.73
2019-02-14T08:20:56.031Z,29.27
2019-02-14T08:23:26.075Z,31.13
2019-02-14T08:25:55.844Z,25.20
2019-02-14T08:28:26.137Z,20.33
2019-02-14T08:30:55.831Z,21.63
2019-02-14T08:33:25.474Z,22.67
2019-02-14T08:35:55.375Z,15.97
2019-02-14T08:38:25.478Z,18.50
2019-02-14T08:40:55.378Z,16.70
2019-02-14T08:43:26.484Z,19.67
2019-02-14T08:45:56.495Z,27.43
2019-02-14T08:48:27.033Z,19.10
2019-02-14T08:50:57.567Z,26.00
2019-02-14T08:53:27.251Z,25.70
2019-02-14T08:55:56.931Z,14.30
2019-02-14T08:58:26.874Z,27.23
2019-02-14T09:00:56.601Z,21.53
2019-02-14T09:03:26.801Z,20.00
2019-02-14T09:05:56.687Z,13.67
2019-02-14T09:08:26.604Z,22.07
2019-02-14T09:10:56.614Z,19.17
2019-02-14T09:13:26.415Z,21.97
2019-02-14T09:15:57.098Z,16.87
2019-02-14T09:18:26.999Z,17.90
2019-02-14T09:20:56.643Z,22.27
2019-02-14T09:23:26.324Z,20.20
2019-02-14T09:25:56.232Z,23.17
2019-02-14T09:28:26.270Z,22.40
2019-02-14T09:31:01.223Z,16.73
2019-02-14T09:33:30.920Z,16.57
2019-02-14T09:36:00.929Z,20.53
2019-02-14T09:38:30.627Z,21.50
2019-02-14T09:41:00.279Z,16.40
2019-02-14T09:43:30.668Z,18.47
2019-02-14T09:46:00.536Z,20.63
2019-02-14T09:48:30.621Z,22.17
2019-02-14T09:51:00.834Z,13.30
2019-02-14T09:53:30.659Z,21.93
2019-02-14T09:56:00.524Z,17.13
2019-02-14T09:58:30.655Z,22.90
2019-02-14T10:01:01.228Z,21.07
2019-02-14T10:03:30.993Z,15.50
2019-02-14T10:06:01.182Z,20.87
2019-02-14T10:08:31.286Z,22.60
2019-02-14T10:11:01.367Z,16.53
2019-02-14T10:13:31.365Z,17.20
2019-02-14T10:16:02.060Z,18.97
2019-02-14T10:18:32.106Z,18.30
2019-02-14T10:21:02.490Z,18.67
2019-02-14T10:23:32.766Z,17.87
2019-02-14T10:26:02.635Z,19.93
2019-02-14T10:28:32.790Z,17.10
2019-02-14T10:31:02.652Z,16.03
2019-02-14T10:33:32.627Z,16.30
2019-02-14T10:36:04.418Z,18.07
2019-02-14T10:38:34.842Z,16.33
2019-02-14T10:41:04.929Z,13.13
2019-02-14T10:43:34.970Z,12.93
2019-02-14T10:46:04.748Z,18.70
2019-02-14T10:48:34.912Z,17.97
2019-02-14T10:51:05.073Z,14.23
2019-02-14T10:53:34.851Z,15.20
2019-02-14T10:56:04.887Z,16.53
2019-02-14T10:58:36.297Z,15.93
2019-02-14T11:01:07.455Z,14.83
2019-02-14T11:03:37.288Z,12.27
2019-02-14T11:06:07.054Z,12.00
2019-02-14T11:08:37.867Z,15.00
2019-02-14T11:11:08.578Z,18.37
2019-02-14T11:13:38.643Z,11.93
2019-02-14T11:16:10.002Z,16.17
2019-02-14T11:18:44.356Z,11.20
2019-02-14T11:21:11.718Z,17.50
2019-02-14T11:23:41.760Z,11.23
2019-02-14T11:26:11.926Z,9.83
2019-02-14T11:28:41.732Z,12.40
2019-02-14T11:31:11.837Z,11.80
2019-02-14T11:33:42.481Z,9.50
2019-02-14T11:36:12.368Z,12.20
2019-02-14T11:38:42.176Z,11.37
2019-02-14T11:41:12.220Z,10.90
2019-02-14T11:43:42.426Z,10.37
2019-02-14T11:46:12.838Z,12.00
2019-02-14T11:48:42.841Z,12.70
2019-02-14T11:51:12.281Z,11.17
2019-02-14T11:53:42.439Z,11.00
2019-02-14T11:56:12.739Z,8.57
2019-02-14T11:58:42.578Z,12.47
2019-02-14T12:01:12.897Z,9.67
2019-02-14T12:03:43.019Z,10.50
2019-02-14T12:06:17.576Z,11.40
2019-02-14T12:08:57.789Z,15.43
2019-02-14T12:11:18.146Z,11.70
2019-02-14T12:13:48.242Z,8.23
2019-02-14T12:16:18.646Z,8.50
2019-02-14T12:18:49.263Z,9.80
2019-02-14T12:21:19.527Z,6.27
2019-02-14T12:23:49.792Z,8.83
2019-02-14T12:26:20.601Z,7.93
2019-02-14T12:28:50.880Z,9.80
2019-02-14T12:31:21.470Z,11.83
2019-02-14T12:33:51.246Z,7.50
2019-02-14T12:36:21.284Z,11.03
2019-02-14T12:38:51.401Z,7.90
2019-02-14T12:41:21.617Z,11.07
2019-02-14T12:43:51.756Z,8.23
2019-02-14T12:46:21.778Z,9.53
2019-02-14T12:48:52.205Z,8.03
2019-02-14T12:51:22.767Z,8.33
2019-02-14T12:53:53.300Z,7.50
2019-02-14T12:56:23.661Z,9.73
2019-02-14T12:58:53.832Z,8.10
2019-02-14T13:01:25.029Z,7.63
2019-02-14T13:03:54.919Z,6.47
2019-02-14T13:06:25.511Z,7.43
2019-02-14T13:08:56.144Z,8.03
2019-02-14T13:11:26.677Z,5.80
2019-02-14T13:13:56.708Z,4.47
2019-02-14T13:16:27.326Z,5.33
2019-02-14T13:18:57.352Z,7.10
2019-02-14T13:21:27.430Z,6.93
2019-02-14T13:23:57.452Z,6.63
2019-02-14T13:26:27.755Z,6.37
2019-02-14T13:28:57.901Z,7.57
2019-02-14T13:31:32.159Z,5.17
2019-02-14T13:33:59.360Z,4.73
2019-02-14T13:36:29.864Z,7.27
2019-02-14T13:39:00.213Z,5.57
2019-02-14T13:41:31.400Z,6.70
2019-02-14T13:44:02.814Z,4.53
2019-02-14T13:46:33.495Z,6.00
2019-02-14T13:49:03.697Z,5.10
2019-02-14T13:51:33.472Z,5.30
2019-02-14T13:54:03.234Z,4.93
2019-02-14T13:56:33.205Z,4.70
2019-02-14T13:59:03.161Z,3.97
2019-02-14T14:01:32.923Z,5.17
2019-02-14T14:04:02.997Z,6.27
2019-02-14T14:06:33.199Z,4.43
2019-02-14T14:09:04.340Z,4.87
2019-02-14T14:11:34.524Z,6.70
2019-02-14T14:14:04.263Z,3.97
2019-02-14T14:16:34.248Z,5.57
2019-02-14T14:19:06.434Z,3.27
2019-02-14T14:21:35.474Z,3.97
2019-02-14T14:24:05.715Z,5.27
2019-02-14T14:26:35.535Z,4.87
2019-02-14T14:29:06.246Z,3.50
2019-02-14T14:31:35.965Z,6.37
2019-02-14T14:34:05.879Z,3.97
2019-02-14T14:36:35.827Z,4.27
2019-02-14T14:39:06.839Z,3.87
2019-02-14T14:41:37.459Z,4.30
2019-02-14T14:44:19.743Z,4.27
2019-02-14T14:46:59.532Z,4.73
2019-02-14T14:49:29.987Z,4.93
2019-02-14T14:52:00.273Z,5.00
2019-02-14T14:54:30.390Z,5.67
2019-02-14T14:57:00.714Z,7.60
2019-02-14T14:59:30.718Z,4.27
2019-02-14T15:02:01.028Z,3.73
2019-02-14T15:04:31.693Z,4.53
2019-02-14T15:07:01.972Z,4.00
2019-02-14T15:09:32.096Z,3.90
2019-02-14T15:12:02.215Z,3.83
2019-02-14T15:14:32.314Z,3.67
2019-02-14T15:17:02.434Z,5.57
2019-02-14T15:19:32.636Z,6.23
2019-02-14T15:22:02.784Z,3.70
2019-02-14T15:24:32.776Z,4.37
2019-02-14T15:27:03.194Z,2.80
2019-02-14T15:29:33.701Z,3.17
2019-02-14T15:32:04.229Z,3.20
2019-02-14T15:34:34.307Z,3.60
2019-02-14T15:37:04.531Z,4.30
2019-02-14T15:39:34.836Z,4.10
2019-02-14T15:42:04.966Z,3.87
2019-02-14T15:44:34.989Z,3.77
2019-02-14T15:47:05.113Z,3.43
2019-02-14T15:49:35.175Z,4.63
2019-02-14T15:52:05.987Z,3.40
2019-02-14T15:54:36.624Z,3.60
2019-02-14T15:57:06.687Z,3.33
2019-02-14T15:59:36.981Z,4.13
2019-02-14T16:02:08.452Z,4.30
2019-02-14T16:04:39.086Z,3.37
2019-02-14T16:07:09.417Z,3.40
2019-02-14T16:09:41.343Z,4.23
2019-02-14T16:12:10.873Z,2.87
2019-02-14T16:14:42.596Z,5.10
2019-02-14T16:17:13.750Z,2.47
2019-02-14T16:19:43.768Z,2.80
2019-02-14T16:22:15.692Z,3.10
2019-02-14T16:24:46.465Z,2.97
2019-02-14T16:27:16.797Z,4.27
2019-02-14T16:29:48.948Z,2.43
2019-02-14T16:32:19.000Z,2.47
2019-02-14T16:34:48.822Z,2.80
2019-02-14T16:37:18.709Z,2.47
2019-02-14T16:39:51.849Z,2.60
2019-02-14T16:42:21.614Z,4.40
2019-02-14T16:44:52.012Z,2.50
2019-02-14T16:47:42.627Z,2.63
2019-02-14T16:50:12.663Z,2.83
2019-02-14T16:52:42.556Z,3.10
2019-02-14T16:55:12.767Z,3.47
2019-02-14T16:57:42.921Z,3.47
2019-02-14T17:00:12.995Z,3.30
2019-02-14T17:02:42.660Z,7.27
2019-02-14T17:05:12.527Z,3.40
2019-02-14T17:07:43.005Z,4.77
2019-02-14T17:10:13.015Z,6.50
2019-02-14T17:12:43.354Z,3.93
2019-02-14T17:15:13.100Z,4.40
2019-02-14T17:17:42.855Z,4.83
2019-02-14T17:20:13.256Z,4.30
2019-02-14T17:22:42.869Z,3.97
2019-02-14T17:25:12.656Z,3.73
2019-02-14T17:27:43.761Z,4.23
2019-02-14T17:30:13.859Z,4.27
2019-02-14T17:32:44.024Z,5.73
2019-02-14T17:35:14.327Z,5.07
2019-02-14T17:37:44.407Z,6.30
2019-02-14T17:40:14.484Z,6.83
2019-02-14T17:42:44.435Z,6.60
2019-02-14T17:45:14.432Z,6.80
2019-02-14T17:47:44.572Z,7.57
2019-02-14T17:50:14.330Z,7.93
2019-02-14T17:52:44.295Z,7.27
2019-02-14T17:55:14.482Z,5.07
2019-02-14T17:57:44.726Z,5.63
2019-02-14T18:00:14.766Z,5.57
2019-02-14T18:02:44.993Z,3.90
2019-02-14T18:05:15.222Z,5.50
2019-02-14T18:07:45.461Z,3.70
2019-02-14T18:10:15.386Z,5.53
2019-02-14T18:12:45.200Z,3.97
2019-02-14T18:15:15.724Z,5.07
2019-02-14T18:17:45.657Z,3.80
2019-02-14T18:20:15.279Z,4.63
2019-02-14T18:22:44.931Z,4.10
2019-02-14T18:25:15.288Z,3.43
2019-02-14T18:27:45.874Z,5.70
2019-02-14T18:30:15.996Z,3.43
2019-02-14T18:32:47.539Z,5.30
2019-02-14T18:35:17.459Z,5.17
2019-02-14T18:37:47.212Z,6.53
2019-02-14T18:40:17.046Z,6.23
2019-02-14T18:42:47.026Z,3.57
2019-02-14T18:45:16.948Z,3.17
2019-02-14T18:47:50.838Z,4.20
2019-02-14T18:50:21.658Z,5.03
2019-02-14T18:52:53.112Z,3.27
2019-02-14T18:55:25.342Z,4.10
2019-02-14T18:57:56.151Z,4.17
2019-02-14T19:00:26.860Z,4.07
2019-02-14T19:02:57.017Z,4.20
2019-02-14T19:05:27.820Z,4.63
2019-02-14T19:07:57.920Z,4.07
2019-02-14T19:10:28.766Z,3.93
2019-02-14T19:12:58.884Z,2.90
2019-02-14T19:15:28.826Z,3.80
2019-02-14T19:17:59.120Z,3.70
2019-02-14T19:20:29.879Z,3.67
2019-02-14T19:23:00.018Z,4.37
2019-02-14T19:25:29.968Z,3.07
2019-02-14T19:28:00.208Z,7.30
2019-02-14T19:30:30.636Z,6.20
2019-02-14T19:33:02.114Z,3.53
2019-02-14T19:35:33.090Z,3.37
2019-02-14T19:38:04.400Z,3.30
2019-02-14T19:40:35.405Z,3.63
2019-02-14T19:43:10.526Z,4.00
2019-02-14T19:45:45.540Z,2.90
2019-02-14T19:48:16.859Z,4.00
2019-02-14T19:50:47.202Z,3.33
2019-02-14T19:53:17.205Z,4.40
2019-02-14T19:55:49.810Z,5.67
2019-02-14T19:58:24.847Z,5.53
2019-02-14T20:00:54.743Z,3.73
2019-02-14T20:03:25.312Z,3.73
2019-02-14T20:05:55.383Z,6.43
2019-02-14T20:08:26.920Z,3.80
2019-02-14T20:10:57.107Z,5.07
2019-02-14T20:13:27.063Z,5.80
2019-02-14T20:15:57.109Z,5.27
2019-02-14T20:18:27.100Z,4.27
2019-02-14T20:20:58.187Z,3.60
2019-02-14T20:23:29.373Z,5.10
2019-02-14T20:25:59.907Z,3.33
2019-02-14T20:28:30.233Z,4.47
2019-02-14T20:31:00.386Z,4.57
2019-02-14T20:33:30.533Z,4.03
2019-02-14T20:36:00.996Z,4.43
2019-02-14T20:38:31.430Z,5.77
2019-02-14T20:41:02.378Z,3.90
2019-02-14T20:43:32.556Z,3.20
2019-02-14T20:46:03.292Z,4.00
2019-02-14T20:48:33.463Z,3.33
2019-02-14T20:51:03.286Z,3.33
2019-02-14T20:53:33.645Z,4.00
2019-02-14T20:56:03.747Z,5.07
2019-02-14T20:58:33.996Z,3.37
2019-02-14T21:01:08.255Z,3.20
2019-02-14T21:03:38.591Z,4.57
2019-02-14T21:06:11.842Z,3.40
2019-02-14T21:08:41.785Z,4.93
2019-02-14T21:11:13.068Z,4.77
2019-02-14T21:13:43.538Z,5.77
2019-02-14T21:16:13.400Z,5.47
2019-02-14T21:18:43.891Z,4.70
2019-02-14T21:21:14.011Z,6.10
2019-02-14T21:23:45.267Z,4.93
2019-02-14T21:26:15.548Z,4.33
2019-02-14T21:28:45.559Z,5.87
2019-02-14T21:31:15.550Z,4.60
2019-02-14T21:33:45.523Z,4.43
2019-02-14T21:36:15.627Z,3.80
2019-02-14T21:38:46.111Z,4.43
2019-02-14T21:41:16.239Z,5.30
2019-02-14T21:43:46.221Z,5.30
2019-02-14T21:46:17.467Z,3.40
2019-02-14T21:48:47.670Z,3.43
2019-02-14T21:51:17.607Z,4.53
2019-02-14T21:53:47.701Z,3.53
2019-02-14T21:56:17.709Z,4.67
2019-02-14T21:58:49.792Z,4.57
2019-02-14T22:01:22.685Z,4.83
2019-02-14T22:03:53.536Z,4.67
2019-02-14T22:06:24.392Z,4.03
2019-02-14T22:08:54.698Z,3.80
2019-02-14T22:11:25.585Z,4.03
2019-02-14T22:13:55.862Z,5.43
2019-02-14T22:16:25.836Z,3.80
2019-02-14T22:18:55.696Z,3.43
2019-02-14T22:21:26.519Z,4.70
2019-02-14T22:23:56.397Z,4.90
2019-02-14T22:26:26.399Z,5.63
2019-02-14T22:28:56.699Z,3.70
2019-02-14T22:31:26.699Z,3.50
2019-02-14T22:33:56.884Z,4.40
2019-02-14T22:36:26.795Z,4.27
2019-02-14T22:38:58.700Z,4.00
2019-02-14T22:41:28.925Z,3.53
2019-02-14T22:43:58.739Z,5.30
2019-02-14T22:46:28.640Z,2.97
2019-02-14T22:48:59.070Z,4.17
2019-02-14T22:51:30.420Z,4.30
2019-02-14T22:54:00.333Z,2.93
2019-02-14T22:56:30.431Z,5.13
2019-02-14T22:59:00.700Z,4.00
2019-02-14T23:01:31.464Z,3.50
2019-02-14T23:04:01.746Z,3.20
2019-02-14T23:06:32.383Z,3.53
2019-02-14T23:09:02.388Z,4.13
2019-02-14T23:11:32.668Z,5.50
2019-02-14T23:14:03.253Z,4.43
2019-02-14T23:16:33.263Z,3.30
2019-02-14T23:19:03.288Z,3.40
2019-02-14T23:21:33.366Z,3.70
2019-02-14T23:24:03.478Z,3.87
2019-02-14T23:26:34.765Z,4.03
2019-02-14T23:29:04.827Z,4.00
2019-02-14T23:31:34.725Z,3.60
2019-02-14T23:34:05.743Z,3.40
2019-02-14T23:36:35.902Z,3.53
2019-02-14T23:39:07.006Z,6.43
2019-02-14T23:41:37.103Z,3.77
2019-02-14T23:44:07.095Z,3.67
2019-02-14T23:46:37.106Z,3.60
2019-02-14T23:49:06.822Z,3.63
2019-02-14T23:51:37.267Z,3.23
2019-02-14T23:54:07.423Z,3.00
2019-02-14T23:56:37.383Z,4.80
2019-02-14T23:59:07.342Z,3.47
